Terminal Aerodrome Forecast
Issued by NWS

Home | Current Version | Previous Version | Text Only | Print | Product List | Glossary Off
Versions: 1 2 3 4 5 6 7 8 9 10 11 12 13 14

227
FTUS43 KABR 182012 AAA
TAFATY
TAF AMD
KATY 182012Z 1820/1918 33016KT P6SM OVC050
     FM190300 VRB05KT P6SM BKN150
     FM190900 VRB03KT 4SM BR SCT250
      TEMPO 1909/1913 1SM BR
     FM191300 VRB03KT 5SM BR FEW250=

USA.gov is the U.S. government's official web portal to all federal, state and local government web resources and services.